Time;durP1;ratioP1;P1;durP2;ratioP2;P2;SDS_P1;SDS_P2;PMS_P1;PMS_P2;Temp;Humidity;BMP_temperature;BMP_pressure;BME280_temperature;BME280_humidity;BME280_pressure;Samples;Min_cycle;Max_cycle;Signal;HPM_P1;HPM_P2
2023/03/25 00:00:12;;;;;;;11.10;3.13;;;18.90;46.10;;;;;;5051925;28;20196;-81
2023/03/25 00:02:39;;;;;;;12.40;3.33;;;18.90;46.10;;;;;;5052382;28;20218;-81
2023/03/25 00:05:09;;;;;;;9.32;2.63;;;18.90;46.10;;;;;;5050275;28;20284;-81
2023/03/25 00:07:38;;;;;;;13.68;3.03;;;18.90;46.10;;;;;;5050687;28;20716;-81
2023/03/25 00:10:06;;;;;;;15.30;3.50;;;18.90;46.20;;;;;;5051932;28;20671;-81
2023/03/25 00:12:34;;;;;;;11.60;3.08;;;18.90;46.10;;;;;;5051556;28;20226;-81
2023/03/25 00:15:01;;;;;;;17.80;3.83;;;18.90;46.10;;;;;;5051694;28;20666;-81
2023/03/25 00:17:29;;;;;;;12.23;3.42;;;18.90;46.10;;;;;;5051926;28;20224;-81
2023/03/25 00:19:59;;;;;;;14.77;3.30;;;18.90;46.10;;;;;;5052027;28;20394;-81
2023/03/25 00:22:26;;;;;;;14.43;3.47;;;18.90;46.10;;;;;;5052059;28;20269;-81
2023/03/25 00:24:55;;;;;;;18.20;3.45;;;18.90;46.10;;;;;;5050300;28;20628;-81
2023/03/25 00:27:22;;;;;;;11.57;3.60;;;18.90;46.10;;;;;;5050777;28;20246;-81
2023/03/25 00:29:50;;;;;;;10.88;3.00;;;18.90;46.10;;;;;;5051383;28;20658;-81
2023/03/25 00:32:19;;;;;;;18.13;3.55;;;18.80;46.10;;;;;;5050605;28;20220;-80
2023/03/25 00:34:47;;;;;;;16.67;3.42;;;18.90;46.10;;;;;;5054455;28;20199;-81
2023/03/25 00:37:17;;;;;;;13.50;2.70;;;18.80;46.00;;;;;;5054449;28;20245;-80
2023/03/25 00:39:45;;;;;;;10.63;2.78;;;18.90;46.10;;;;;;5055331;28;20227;-80
2023/03/25 00:42:16;;;;;;;12.80;3.25;;;18.90;46.10;;;;;;5053903;28;20226;-81
2023/03/25 00:44:43;;;;;;;11.52;2.92;;;18.80;46.70;;;;;;5053562;28;20219;-80
2023/03/25 00:47:17;;;;;;;11.77;3.25;;;18.90;46.10;;;;;;5053724;28;20808;-81
2023/03/25 00:49:44;;;;;;;10.43;2.70;;;18.80;46.10;;;;;;5055129;28;20299;-81
2023/03/25 00:52:12;;;;;;;12.00;2.80;;;18.80;46.00;;;;;;5055325;28;20265;-81
2023/03/25 00:54:39;;;;;;;9.68;2.92;;;18.80;46.00;;;;;;5053735;28;20673;-80
2023/03/25 00:57:06;;;;;;;11.98;2.67;;;18.80;46.00;;;;;;5054938;28;20613;-80
2023/03/25 00:59:35;;;;;;;8.93;2.20;;;18.80;46.00;;;;;;5055187;28;20261;-80
2023/03/25 01:02:05;;;;;;;9.20;2.53;;;18.80;46.00;;;;;;5054022;28;20301;-81
2023/03/25 01:04:33;;;;;;;13.10;2.53;;;18.80;46.00;;;;;;5053409;28;20207;-81
2023/03/25 01:07:00;;;;;;;11.10;2.88;;;18.80;46.00;;;;;;5054703;28;20585;-81
2023/03/25 01:09:27;;;;;;;11.73;2.65;;;18.80;46.00;;;;;;5055207;28;20198;-81
2023/03/25 01:11:54;;;;;;;14.10;2.72;;;18.80;46.10;;;;;;5054958;28;20251;-80
2023/03/25 01:14:26;;;;;;;11.45;2.42;;;18.80;46.10;;;;;;5053549;28;20642;-81
2023/03/25 01:16:55;;;;;;;11.43;2.85;;;18.80;46.00;;;;;;5054602;28;20215;-81
2023/03/25 01:19:23;;;;;;;11.93;2.65;;;18.70;46.00;;;;;;5054666;28;20200;-80
2023/03/25 01:21:51;;;;;;;9.57;2.42;;;18.70;46.00;;;;;;5054934;28;20224;-80
2023/03/25 01:24:18;;;;;;;13.52;2.80;;;18.70;46.00;;;;;;5053515;28;20187;-80
2023/03/25 01:26:45;;;;;;;10.48;2.80;;;18.70;46.00;;;;;;5037227;28;20713;-81
2023/03/25 01:29:15;;;;;;;8.82;2.47;;;18.70;46.00;;;;;;5054305;28;20200;-80
2023/03/25 01:31:43;;;;;;;9.50;2.67;;;18.70;46.00;;;;;;5054531;28;20220;-81
2023/03/25 01:34:12;;;;;;;12.15;2.35;;;18.70;46.00;;;;;;5053005;28;20289;-81
2023/03/25 01:36:40;;;;;;;11.73;2.83;;;18.70;46.10;;;;;;5053433;28;20242;-80
2023/03/25 01:39:09;;;;;;;16.35;3.17;;;18.70;46.00;;;;;;5054375;28;20188;-80
2023/03/25 01:41:37;;;;;;;13.45;3.20;;;18.70;46.00;;;;;;5054481;28;20306;-81
2023/03/25 01:44:06;;;;;;;14.45;3.05;;;18.70;46.00;;;;;;5052905;28;20203;-80
2023/03/25 01:46:33;;;;;;;10.85;2.78;;;18.70;46.10;;;;;;5052640;28;20242;-80
2023/03/25 01:49:04;;;;;;;10.45;2.33;;;18.70;46.00;;;;;;5054310;28;20203;-80
2023/03/25 01:51:36;;;;;;;9.65;2.67;;;18.70;46.10;;;;;;5053051;28;20269;-80
2023/03/25 01:54:04;;;;;;;8.45;2.38;;;18.60;46.00;;;;;;5054217;28;20188;-80
2023/03/25 01:56:33;;;;;;;10.75;3.08;;;18.70;46.20;;;;;;5052629;28;20223;-81
2023/03/25 01:59:03;;;;;;;11.90;2.70;;;18.60;46.00;;;;;;5053986;28;20195;-80
2023/03/25 02:01:31;;;;;;;12.20;2.60;;;18.60;46.10;;;;;;5052479;28;20219;-81
2023/03/25 02:04:08;;;;;;;11.10;2.78;;;18.60;46.00;;;;;;5052794;28;20195;-81
2023/03/25 02:06:43;;;;;;;10.90;2.63;;;18.60;46.10;;;;;;5036993;28;20266;-81
2023/03/25 02:09:11;;;;;;;13.00;2.92;;;18.60;46.10;;;;;;5053583;28;20183;-80
2023/03/25 02:11:39;;;;;;;8.13;2.40;;;18.60;46.10;;;;;;5053738;28;20307;-80
2023/03/25 02:14:09;;;;;;;12.07;2.70;;;18.60;46.10;;;;;;5053824;28;20195;-81
2023/03/25 02:16:44;;;;;;;11.15;2.88;;;18.60;46.10;;;;;;5053318;28;20639;-80
2023/03/25 02:19:55;;;;;;;14.77;3.15;;;18.60;46.20;;;;;;5053302;28;20609;-81
2023/03/25 02:23:22;;;;;;;13.02;3.13;;;18.60;46.20;;;;;;5050195;28;20219;-81
2023/03/25 02:26:11;;;;;;;11.15;2.97;;;18.60;46.20;;;;;;4994943;28;20221;-81
2023/03/25 02:28:46;;;;;;;11.93;2.80;;;18.60;46.20;;;;;;5011185;28;20606;-81
2023/03/25 02:31:51;;;;;;;10.75;2.67;;;18.50;46.10;;;;;;5045834;28;20593;-81
2023/03/25 02:34:47;;;;;;;13.48;2.75;;;18.60;46.20;;;;;;5037912;28;20231;-81
2023/03/25 02:37:45;;;;;;;13.00;2.92;;;18.60;46.20;;;;;;5051965;28;20227;-81
2023/03/25 02:40:19;;;;;;;14.20;2.83;;;18.60;46.30;;;;;;5051522;28;20206;-81
2023/03/25 02:42:51;;;;;;;10.95;3.10;;;18.60;46.30;;;;;;5053137;28;20728;-81
2023/03/25 02:45:25;;;;;;;10.95;3.17;;;18.50;46.30;;;;;;5053013;28;20558;-81
2023/03/25 02:47:58;;;;;;;11.32;2.80;;;18.50;46.20;;;;;;5053142;28;20219;-81
2023/03/25 02:50:30;;;;;;;11.73;2.53;;;18.60;46.30;;;;;;5051898;28;20191;-81
2023/03/25 02:53:00;;;;;;;10.65;2.80;;;18.50;46.30;;;;;;5035449;28;20685;-81
2023/03/25 02:55:32;;;;;;;11.07;2.90;;;18.50;46.30;;;;;;5051943;28;20238;-81
2023/03/25 02:58:02;;;;;;;11.63;2.97;;;18.50;46.30;;;;;;5053421;28;20216;-81
2023/03/25 03:00:30;;;;;;;11.93;2.40;;;18.50;46.30;;;;;;5051697;28;20188;-81
2023/03/25 03:02:59;;;;;;;11.65;3.00;;;18.50;46.30;;;;;;5053049;28;20261;-81
2023/03/25 03:05:28;;;;;;;11.05;3.17;;;18.50;46.30;;;;;;5051489;28;20247;-81
2023/03/25 03:08:17;;;;;;;11.00;2.60;;;18.50;46.30;;;;;;5052874;28;20219;-81
2023/03/25 03:10:52;;;;;;;14.77;2.83;;;18.50;46.30;;;;;;5051943;28;20205;-81
2023/03/25 03:13:29;;;;;;;18.48;3.33;;;18.50;46.30;;;;;;5051206;28;20276;-81
2023/03/25 03:16:07;;;;;;;9.95;2.50;;;18.50;46.40;;;;;;5052223;28;20188;-80
2023/03/25 03:18:45;;;;;;;9.70;2.78;;;18.50;46.40;;;;;;5035344;28;20187;-81
2023/03/25 03:21:22;;;;;;;10.25;2.75;;;18.50;46.40;;;;;;5052217;28;20278;-81
2023/03/25 03:23:58;;;;;;;15.02;2.88;;;18.50;46.40;;;;;;5051067;28;20603;-81
2023/03/25 03:26:34;;;;;;;12.30;3.10;;;18.50;46.50;;;;;;5051166;28;20234;-81
2023/03/25 03:29:08;;;;;;;15.13;2.80;;;18.40;46.30;;;;;;5052028;28;20199;-81
2023/03/25 03:31:40;;;;;;;17.42;3.33;;;18.40;46.30;;;;;;5052334;28;20230;-81
2023/03/25 03:34:13;;;;;;;13.93;2.88;;;18.40;46.30;;;;;;5052373;28;20240;-81
2023/03/25 03:36:45;;;;;;;14.13;3.15;;;18.40;46.30;;;;;;5050949;28;20298;-81
2023/03/25 03:39:18;;;;;;;16.20;3.25;;;18.40;46.40;;;;;;5052429;28;20203;-81
2023/03/25 03:41:51;;;;;;;14.95;3.08;;;18.40;46.40;;;;;;5051868;28;20593;-81
2023/03/25 03:44:21;;;;;;;12.10;2.63;;;18.40;46.40;;;;;;5051988;28;20199;-81
2023/03/25 03:46:54;;;;;;;14.55;3.13;;;18.40;46.40;;;;;;5052058;28;20697;-81
2023/03/25 03:49:26;;;;;;;11.40;2.67;;;18.40;46.40;;;;;;5033218;28;20223;-81
2023/03/25 03:52:00;;;;;;;14.70;3.10;;;18.40;46.40;;;;;;5034855;28;20215;-81
2023/03/25 03:54:31;;;;;;;12.75;3.03;;;18.40;46.40;;;;;;5052193;28;20196;-81
2023/03/25 03:57:03;;;;;;;13.73;3.22;;;18.40;46.40;;;;;;5051647;28;20230;-81
2023/03/25 03:59:38;;;;;;;14.18;2.90;;;18.40;46.40;;;;;;5052316;28;20779;-81
2023/03/25 04:02:13;;;;;;;13.50;3.33;;;18.40;47.10;;;;;;5051846;28;20225;-81
2023/03/25 04:04:41;;;;;;;11.52;2.63;;;18.40;46.40;;;;;;5051776;28;20188;-81
2023/03/25 04:07:15;;;;;;;14.55;2.58;;;18.40;46.40;;;;;;5053352;28;20318;-81
2023/03/25 04:09:55;;;;;;;10.07;2.40;;;18.40;46.40;;;;;;5055009;28;20192;-81
2023/03/25 04:12:26;;;;;;;12.88;3.15;;;18.40;46.50;;;;;;5054582;28;20223;-81
2023/03/25 04:14:55;;;;;;;15.45;3.40;;;18.40;46.50;;;;;;5055737;28;20704;-81
2023/03/25 04:17:23;;;;;;;11.02;3.08;;;18.40;46.50;;;;;;5054832;28;20215;-81
2023/03/25 04:19:52;;;;;;;13.52;2.97;;;18.40;46.40;;;;;;5054671;28;20565;-81
2023/03/25 04:22:21;;;;;;;13.27;3.10;;;18.40;46.50;;;;;;5054436;28;20701;-81
2023/03/25 04:24:50;;;;;;;12.30;3.30;;;18.40;46.40;;;;;;5055484;28;20188;-81
2023/03/25 04:27:18;;;;;;;13.55;3.63;;;18.30;46.40;;;;;;5055260;28;20276;-81
2023/03/25 04:29:47;;;;;;;10.18;2.72;;;18.30;46.40;;;;;;5055741;28;20226;-81
2023/03/25 04:32:16;;;;;;;11.85;3.05;;;18.40;46.40;;;;;;5054049;28;20254;-81
2023/03/25 04:34:45;;;;;;;12.25;2.60;;;18.40;47.20;;;;;;5055694;28;20199;-81
2023/03/25 04:37:13;;;;;;;12.00;2.88;;;18.40;46.40;;;;;;5054645;28;20219;-81
2023/03/25 04:39:40;;;;;;;13.70;3.03;;;18.40;46.40;;;;;;5052692;28;20231;-81
2023/03/25 04:42:07;;;;;;;13.98;3.28;;;18.40;46.40;;;;;;5055308;28;20573;-81
2023/03/25 04:44:37;;;;;;;12.45;3.38;;;18.30;46.40;;;;;;5055137;28;20234;-81
2023/03/25 04:47:07;;;;;;;12.25;2.78;;;18.40;46.40;;;;;;5054921;28;20227;-81
2023/03/25 04:49:35;;;;;;;14.25;2.88;;;18.30;46.40;;;;;;5054190;28;20195;-81
2023/03/25 04:52:03;;;;;;;15.25;3.10;;;18.30;46.40;;;;;;5054962;28;20250;-81
2023/03/25 04:54:30;;;;;;;7.85;2.72;;;18.30;46.40;;;;;;5054956;28;20652;-81
2023/03/25 04:56:57;;;;;;;14.73;3.30;;;18.40;46.50;;;;;;5054926;28;20298;-81
2023/03/25 04:59:25;;;;;;;13.48;2.83;;;18.30;46.40;;;;;;5055001;28;20230;-81
2023/03/25 05:01:53;;;;;;;11.82;3.17;;;18.30;46.40;;;;;;5053544;28;20628;-81
2023/03/25 05:04:23;;;;;;;12.27;2.85;;;18.30;46.40;;;;;;5054964;28;20192;-81
2023/03/25 05:06:51;;;;;;;15.85;3.33;;;18.30;46.50;;;;;;5054796;28;20289;-81
2023/03/25 05:09:23;;;;;;;15.73;3.33;;;18.30;46.40;;;;;;5037477;28;20219;-81
2023/03/25 05:11:51;;;;;;;13.45;3.22;;;18.30;46.50;;;;;;5054924;28;20293;-81
2023/03/25 05:14:21;;;;;;;9.95;3.35;;;18.30;46.50;;;;;;5054537;28;20629;-81
2023/03/25 05:16:49;;;;;;;14.85;2.97;;;18.30;46.40;;;;;;5054735;28;20302;-81
2023/03/25 05:19:17;;;;;;;13.40;2.88;;;18.30;46.50;;;;;;5053857;28;20196;-81
2023/03/25 05:21:47;;;;;;;12.10;3.13;;;18.30;47.10;;;;;;5054752;28;20219;-81
2023/03/25 05:24:14;;;;;;;10.40;2.58;;;18.30;46.50;;;;;;5054357;28;20287;-81
2023/03/25 05:26:42;;;;;;;14.23;3.33;;;18.30;46.60;;;;;;5053475;28;20240;-81
2023/03/25 05:29:12;;;;;;;11.40;3.00;;;18.30;46.50;;;;;;5054674;28;20196;-81
2023/03/25 05:31:40;;;;;;;13.63;3.08;;;18.30;46.50;;;;;;5054373;28;20293;-81
2023/03/25 05:34:08;;;;;;;14.18;3.17;;;18.30;46.50;;;;;;5036913;28;20772;-81
2023/03/25 05:36:35;;;;;;;17.83;2.95;;;18.30;46.60;;;;;;5054628;28;20199;-81
2023/03/25 05:39:04;;;;;;;7.05;2.55;;;18.30;46.60;;;;;;5054097;28;20653;-81
2023/03/25 05:41:37;;;;;;;14.95;2.90;;;18.30;46.50;;;;;;5054353;28;20248;-81
2023/03/25 05:44:05;;;;;;;15.02;3.38;;;18.30;46.60;;;;;;5053961;28;20195;-81
2023/03/25 05:46:33;;;;;;;10.77;2.95;;;18.30;46.60;;;;;;5053148;28;20243;-81
2023/03/25 05:49:01;;;;;;;12.07;2.78;;;18.30;46.60;;;;;;5054197;28;20192;-81
2023/03/25 05:51:32;;;;;;;13.10;3.03;;;18.30;46.70;;;;;;5054285;28;20607;-81
2023/03/25 05:54:00;;;;;;;11.32;2.92;;;18.30;46.60;;;;;;5054253;28;20191;-81
2023/03/25 05:56:29;;;;;;;10.70;2.97;;;18.30;46.60;;;;;;5054218;28;20230;-81
2023/03/25 05:58:56;;;;;;;9.90;2.60;;;18.40;46.70;;;;;;5054153;28;20270;-81
2023/03/25 06:01:23;;;;;;;8.55;2.75;;;18.40;46.70;;;;;;5054112;28;20219;-81
2023/03/25 06:03:50;;;;;;;12.70;2.95;;;18.40;46.60;;;;;;5053853;28;20199;-80
2023/03/25 06:06:18;;;;;;;10.95;3.08;;;18.40;46.60;;;;;;5053823;28;20196;-81
2023/03/25 06:08:46;;;;;;;12.35;2.90;;;18.40;46.70;;;;;;5052324;28;20225;-81
2023/03/25 06:11:14;;;;;;;16.05;2.88;;;18.40;46.60;;;;;;5053881;28;20183;-80
2023/03/25 06:13:48;;;;;;;9.10;2.90;;;18.40;46.60;;;;;;5053594;28;20222;-81
2023/03/25 06:16:17;;;;;;;10.38;2.92;;;18.50;46.70;;;;;;5052420;28;20188;-81
2023/03/25 06:18:49;;;;;;;11.75;2.95;;;18.50;46.60;;;;;;5053361;28;20640;-80
2023/03/25 06:21:17;;;;;;;10.02;3.22;;;18.50;46.60;;;;;;5053371;28;20188;-80
2023/03/25 06:23:44;;;;;;;12.05;2.90;;;18.50;46.60;;;;;;5053658;28;20223;-80
2023/03/25 06:26:11;;;;;;;12.32;2.88;;;18.50;46.60;;;;;;5053456;28;20184;-80
2023/03/25 06:28:38;;;;;;;12.05;2.90;;;18.60;46.70;;;;;;5051992;28;20610;-81
2023/03/25 06:31:12;;;;;;;12.27;2.80;;;18.60;46.70;;;;;;5052508;28;20199;-81
2023/03/25 06:33:40;;;;;;;10.57;2.78;;;18.60;46.60;;;;;;5052987;28;20277;-81
2023/03/25 06:36:10;;;;;;;13.45;3.08;;;18.60;46.70;;;;;;5053451;28;20227;-81
2023/03/25 06:38:38;;;;;;;16.63;3.05;;;18.60;46.70;;;;;;5052262;28;20231;-81
2023/03/25 06:41:06;;;;;;;11.35;2.92;;;18.60;46.70;;;;;;5053137;28;20249;-81
2023/03/25 06:43:33;;;;;;;11.05;2.50;;;18.60;46.70;;;;;;5052870;28;20294;-81
2023/03/25 06:46:00;;;;;;;10.05;2.88;;;18.70;46.80;;;;;;5052815;28;20192;-81
2023/03/25 06:48:29;;;;;;;10.95;2.80;;;18.70;46.80;;;;;;5053319;28;20243;-81
2023/03/25 06:50:57;;;;;;;9.40;2.67;;;18.70;46.70;;;;;;5052951;28;20203;-81
2023/03/25 06:53:24;;;;;;;9.93;2.67;;;18.70;46.70;;;;;;5052762;28;20222;-81
2023/03/25 06:55:51;;;;;;;13.18;2.80;;;18.70;46.70;;;;;;5053128;28;20192;-81
2023/03/25 06:58:18;;;;;;;10.80;2.65;;;18.80;46.80;;;;;;5052762;28;20254;-81
2023/03/25 07:00:45;;;;;;;16.48;3.30;;;18.80;46.80;;;;;;5053104;28;20195;-81
2023/03/25 07:03:13;;;;;;;11.40;2.50;;;18.80;46.80;;;;;;5052986;28;20212;-81
2023/03/25 07:05:43;;;;;;;11.73;2.90;;;18.80;46.80;;;;;;5051342;28;20658;-81
2023/03/25 07:08:10;;;;;;;12.93;3.03;;;18.80;46.80;;;;;;5052187;28;20317;-81
2023/03/25 07:10:37;;;;;;;14.15;3.08;;;18.90;46.80;;;;;;5052774;28;20202;-81
2023/03/25 07:13:04;;;;;;;10.45;2.65;;;18.80;46.80;;;;;;5035327;28;20223;-81
2023/03/25 07:15:32;;;;;;;9.77;2.75;;;18.80;46.80;;;;;;5052304;28;20666;-81
2023/03/25 07:17:59;;;;;;;11.98;3.08;;;18.90;46.80;;;;;;5052292;28;20219;-81
2023/03/25 07:20:26;;;;;;;11.38;3.00;;;18.80;46.80;;;;;;5052309;28;20199;-81
2023/03/25 07:22:56;;;;;;;12.55;2.53;;;18.90;46.80;;;;;;5035150;28;20219;-80
2023/03/25 07:25:24;;;;;;;11.75;2.78;;;18.90;46.80;;;;;;5051898;28;20223;-81
2023/03/25 07:27:51;;;;;;;10.85;3.13;;;18.90;46.80;;;;;;5051163;28;20281;-81
2023/03/25 07:30:18;;;;;;;10.80;2.70;;;18.90;46.80;;;;;;5050950;28;20191;-81
2023/03/25 07:32:45;;;;;;;12.90;3.45;;;18.90;46.80;;;;;;5050855;28;20235;-81
2023/03/25 07:35:13;;;;;;;9.48;2.75;;;18.90;46.80;;;;;;5050851;28;20233;-81
2023/03/25 07:37:40;;;;;;;9.85;2.65;;;19.00;46.90;;;;;;5051412;28;20216;-81
2023/03/25 07:40:10;;;;;;;11.35;3.15;;;19.00;46.90;;;;;;5052230;28;20191;-81
2023/03/25 07:42:37;;;;;;;13.02;2.63;;;19.00;46.80;;;;;;5051699;28;20709;-81
2023/03/25 07:45:06;;;;;;;11.00;3.00;;;19.00;46.80;;;;;;5051911;28;20246;-81
2023/03/25 07:47:33;;;;;;;14.45;3.97;;;19.00;46.80;;;;;;5051957;28;20285;-81
2023/03/25 07:50:00;;;;;;;15.57;3.15;;;19.00;46.80;;;;;;5051915;28;20200;-81
2023/03/25 07:52:27;;;;;;;12.70;3.10;;;19.00;46.80;;;;;;5052118;28;20220;-81
2023/03/25 07:54:54;;;;;;;10.07;2.58;;;19.00;46.80;;;;;;5051808;28;20191;-80
2023/03/25 07:57:23;;;;;;;13.45;3.13;;;19.10;46.90;;;;;;5052002;28;20219;-81
2023/03/25 07:59:50;;;;;;;10.77;2.85;;;19.00;46.80;;;;;;5051031;28;20191;-80
2023/03/25 08:02:18;;;;;;;12.05;2.70;;;19.10;46.90;;;;;;5052291;28;20219;-81
2023/03/25 08:04:45;;;;;;;15.50;3.08;;;19.10;46.80;;;;;;5034156;28;20668;-80
2023/03/25 08:07:12;;;;;;;11.15;3.08;;;19.10;46.90;;;;;;5052030;28;20242;-81
2023/03/25 08:09:41;;;;;;;11.25;2.97;;;19.10;46.80;;;;;;5051747;28;20199;-80
2023/03/25 08:12:09;;;;;;;11.18;3.20;;;19.10;46.80;;;;;;5051995;28;20316;-80
2023/03/25 08:14:38;;;;;;;10.75;2.70;;;19.10;46.80;;;;;;5050568;28;20606;-81
2023/03/25 08:17:06;;;;;;;11.60;2.83;;;19.10;46.80;;;;;;5050754;28;20601;-80
2023/03/25 08:19:33;;;;;;;11.02;2.65;;;19.10;46.80;;;;;;5050472;28;20569;-80
2023/03/25 08:22:00;;;;;;;11.95;2.83;;;19.10;46.80;;;;;;5052012;28;20242;-81
2023/03/25 08:24:28;;;;;;;14.50;3.13;;;19.10;46.80;;;;;;5050876;28;20375;-81
2023/03/25 08:26:56;;;;;;;10.02;2.55;;;19.10;46.80;;;;;;5051518;28;20227;-81
2023/03/25 08:29:23;;;;;;;10.30;3.05;;;19.10;46.80;;;;;;5050844;28;20253;-81
2023/03/25 08:31:52;;;;;;;14.82;3.50;;;19.10;46.80;;;;;;5050370;28;20195;-81
2023/03/25 08:34:20;;;;;;;10.85;3.13;;;19.10;46.80;;;;;;5051795;28;20235;-81
2023/03/25 08:36:48;;;;;;;9.32;2.80;;;19.10;46.80;;;;;;5033225;28;20200;-80
2023/03/25 08:39:15;;;;;;;9.77;3.08;;;19.20;46.90;;;;;;5034467;28;20567;-81
2023/03/25 08:41:43;;;;;;;9.90;2.53;;;19.20;46.90;;;;;;5051373;28;20662;-80
2023/03/25 08:44:11;;;;;;;7.45;2.22;;;19.20;46.90;;;;;;5050150;28;20200;-80
2023/03/25 08:46:38;;;;;;;12.15;2.88;;;19.20;46.80;;;;;;5051433;28;20192;-80
2023/03/25 08:49:07;;;;;;;9.68;2.72;;;19.20;46.80;;;;;;5050471;28;20218;-80
2023/03/25 08:51:34;;;;;;;10.38;2.63;;;19.20;46.80;;;;;;5050409;28;20254;-81
2023/03/25 08:54:01;;;;;;;12.00;2.92;;;19.20;46.80;;;;;;5052310;28;20219;-81
2023/03/25 08:56:29;;;;;;;10.98;3.13;;;19.20;46.80;;;;;;5055215;28;20196;-81
2023/03/25 08:58:56;;;;;;;11.52;2.75;;;19.20;46.80;;;;;;5037946;28;20226;-80
2023/03/25 09:01:23;;;;;;;9.32;2.40;;;19.30;46.90;;;;;;5054817;28;20195;-81
2023/03/25 09:03:51;;;;;;;11.55;2.85;;;19.30;46.80;;;;;;5055175;28;20220;-81
2023/03/25 09:06:19;;;;;;;8.18;2.05;;;19.30;46.90;;;;;;5053447;28;20565;-80
2023/03/25 09:08:46;;;;;;;9.93;2.60;;;19.30;46.80;;;;;;5055217;28;20231;-80
2023/03/25 09:11:14;;;;;;;7.93;2.30;;;19.30;46.80;;;;;;5053771;28;20191;-80
2023/03/25 09:13:41;;;;;;;10.00;2.78;;;19.30;46.80;;;;;;5054852;28;20277;-81
2023/03/25 09:16:10;;;;;;;10.73;2.58;;;19.30;46.80;;;;;;5053248;28;20664;-81
2023/03/25 09:18:37;;;;;;;9.40;2.13;;;19.30;46.80;;;;;;5055080;28;20223;-80
2023/03/25 09:21:04;;;;;;;10.48;2.55;;;19.30;46.80;;;;;;5053328;28;20245;-80
2023/03/25 09:23:33;;;;;;;11.75;2.40;;;19.30;46.80;;;;;;5054851;28;20693;-80
2023/03/25 09:26:02;;;;;;;14.63;2.65;;;19.30;46.80;;;;;;5053416;28;20192;-80
2023/03/25 09:28:30;;;;;;;8.50;2.63;;;19.30;46.80;;;;;;5054620;28;20235;-81
2023/03/25 09:30:57;;;;;;;10.50;2.67;;;19.30;46.80;;;;;;5053449;28;20188;-80
2023/03/25 09:33:26;;;;;;;11.70;2.40;;;19.30;46.80;;;;;;5054313;28;20231;-80
2023/03/25 09:35:53;;;;;;;10.68;2.70;;;19.40;46.90;;;;;;5054618;28;20207;-81
2023/03/25 09:38:21;;;;;;;10.80;2.58;;;19.40;46.80;;;;;;5054693;28;20220;-80
2023/03/25 09:40:50;;;;;;;7.55;2.70;;;19.40;46.80;;;;;;5054349;28;20559;-81
2023/03/25 09:43:40;;;;;;;14.27;3.05;;;19.30;46.70;;;;;;5052900;28;20216;-80
2023/03/25 09:46:08;;;;;;;9.35;2.83;;;19.40;46.80;;;;;;5053511;28;20238;-80
2023/03/25 09:48:37;;;;;;;8.85;2.85;;;19.30;46.80;;;;;;5052654;28;20296;-80
2023/03/25 09:51:07;;;;;;;13.00;2.67;;;19.40;46.80;;;;;;5054148;28;20195;-81
2023/03/25 09:53:40;;;;;;;8.35;2.38;;;19.30;46.70;;;;;;5052992;28;20265;-80
2023/03/25 09:56:16;;;;;;;12.13;2.80;;;19.30;46.70;;;;;;5054211;28;20199;-81
2023/03/25 09:58:46;;;;;;;10.20;2.47;;;19.40;46.80;;;;;;5053156;28;20223;-81
2023/03/25 10:01:25;;;;;;;9.45;2.60;;;19.30;46.70;;;;;;5054075;28;20200;-80
2023/03/25 10:03:59;;;;;;;8.82;3.00;;;19.40;46.80;;;;;;5053655;28;20246;-81
2023/03/25 10:06:27;;;;;;;9.80;2.63;;;19.40;46.80;;;;;;5053770;28;20279;-81
2023/03/25 10:09:09;;;;;;;9.63;2.60;;;19.40;46.70;;;;;;5053058;28;20231;-80
2023/03/25 10:11:46;;;;;;;11.45;2.90;;;19.30;46.70;;;;;;5054015;28;20309;-80
2023/03/25 10:14:21;;;;;;;10.90;2.50;;;19.40;46.80;;;;;;5053711;28;20183;-80
2023/03/25 10:17:04;;;;;;;9.80;2.63;;;19.40;46.80;;;;;;5052554;28;20187;-81
2023/03/25 10:19:43;;;;;;;13.65;2.70;;;19.40;46.80;;;;;;5053479;28;20661;-80
2023/03/25 10:22:17;;;;;;;12.10;2.47;;;19.40;46.70;;;;;;5053807;28;20259;-80
2023/03/25 10:24:49;;;;;;;11.65;2.85;;;19.40;46.80;;;;;;5035964;28;20688;-80
2023/03/25 10:27:26;;;;;;;10.48;2.92;;;19.40;46.80;;;;;;5053270;28;20219;-80
2023/03/25 10:29:57;;;;;;;11.50;2.75;;;19.40;46.80;;;;;;5053419;28;20188;-80
2023/03/25 10:32:33;;;;;;;13.45;3.13;;;19.40;46.70;;;;;;5052143;28;20219;-80
2023/03/25 10:35:04;;;;;;;10.32;2.60;;;19.40;46.70;;;;;;5053037;28;20231;-80
2023/03/25 10:37:35;;;;;;;9.93;2.53;;;19.40;46.70;;;;;;5052184;28;20246;-80
2023/03/25 10:40:15;;;;;;;8.88;2.70;;;19.40;46.70;;;;;;5053038;28;20280;-80
2023/03/25 10:42:54;;;;;;;12.07;3.03;;;19.40;46.80;;;;;;5052932;28;20215;-80
2023/03/25 10:45:22;;;;;;;8.88;2.95;;;19.40;46.70;;;;;;5051706;28;20609;-81
2023/03/25 10:47:51;;;;;;;12.05;2.88;;;19.40;46.80;;;;;;5051690;28;20223;-80
2023/03/25 10:50:20;;;;;;;11.40;2.75;;;19.40;46.70;;;;;;5051994;28;20230;-81
2023/03/25 10:52:50;;;;;;;13.40;3.28;;;19.50;46.80;;;;;;5052783;28;20720;-80
2023/03/25 10:55:24;;;;;;;11.25;2.75;;;19.40;46.70;;;;;;5052601;28;20184;-80
2023/03/25 10:57:54;;;;;;;9.63;2.92;;;19.40;46.70;;;;;;5051831;28;20507;-80
2023/03/25 11:00:23;;;;;;;11.55;2.65;;;19.40;46.70;;;;;;5052972;28;20192;-80
2023/03/25 11:02:50;;;;;;;10.25;3.33;;;19.40;46.70;;;;;;5051552;28;20604;-80
2023/03/25 11:05:20;;;;;;;11.90;3.03;;;19.50;46.70;;;;;;5052442;28;20199;-80
2023/03/25 11:07:51;;;;;;;11.15;2.53;;;19.40;46.70;;;;;;5052577;28;20226;-80
2023/03/25 11:10:22;;;;;;;10.93;2.92;;;19.40;46.70;;;;;;5052852;28;20184;-81
2023/03/25 11:12:51;;;;;;;9.07;2.55;;;19.40;46.70;;;;;;5051315;28;20212;-81
2023/03/25 11:15:22;;;;;;;9.57;3.17;;;19.50;47.50;;;;;;5051274;28;20227;-80
2023/03/25 11:17:58;;;;;;;10.75;2.78;;;19.40;46.70;;;;;;5051944;28;20250;-80
2023/03/25 11:20:29;;;;;;;13.00;3.05;;;19.50;46.80;;;;;;5052253;28;20194;-80
2023/03/25 11:23:06;;;;;;;11.93;2.72;;;19.50;46.80;;;;;;5052283;28;20631;-80
2023/03/25 11:25:39;;;;;;;14.02;3.28;;;19.50;46.80;;;;;;5051036;28;20188;-80
2023/03/25 11:28:13;;;;;;;11.88;2.85;;;19.40;46.60;;;;;;5050805;28;20580;-80
2023/03/25 11:31:11;;;;;;;11.27;2.90;;;19.50;46.80;;;;;;5052425;28;20191;-81
2023/03/25 11:33:39;;;;;;;10.23;2.53;;;19.50;46.70;;;;;;5051972;28;20333;-80
2023/03/25 11:36:21;;;;;;;8.25;2.45;;;19.50;46.80;;;;;;5050996;28;20704;-80
2023/03/25 11:38:56;;;;;;;15.98;2.85;;;19.40;46.70;;;;;;5052041;28;20224;-81
2023/03/25 11:41:24;;;;;;;15.90;3.22;;;19.40;46.60;;;;;;5052192;28;20282;-80
2023/03/25 11:43:51;;;;;;;12.45;2.95;;;19.50;46.70;;;;;;5052410;28;20222;-81
2023/03/25 11:46:21;;;;;;;9.57;2.97;;;19.50;46.80;;;;;;5052134;28;20196;-81
2023/03/25 11:48:50;;;;;;;15.07;3.03;;;19.50;46.70;;;;;;5052352;28;20267;-81
2023/03/25 11:51:21;;;;;;;10.20;2.70;;;19.40;46.70;;;;;;5052509;28;20223;-81
2023/03/25 11:53:55;;;;;;;14.13;3.60;;;19.50;46.70;;;;;;5052491;28;20269;-80
2023/03/25 11:56:28;;;;;;;13.88;3.30;;;19.50;46.80;;;;;;5050729;28;20208;-80
2023/03/25 11:59:00;;;;;;;10.38;2.90;;;19.50;46.70;;;;;;5050885;28;20226;-81
2023/03/25 12:01:37;;;;;;;11.70;2.80;;;19.40;46.60;;;;;;5051060;28;20425;-81
2023/03/25 12:04:23;;;;;;;9.10;2.53;;;19.50;47.40;;;;;;5052011;28;20219;-80
2023/03/25 12:07:00;;;;;;;11.20;3.38;;;19.50;46.70;;;;;;5052047;28;20268;-80
2023/03/25 12:09:30;;;;;;;12.60;2.83;;;19.50;46.70;;;;;;5050625;28;20670;-80
2023/03/25 12:12:31;;;;;;;13.40;3.20;;;19.50;46.70;;;;;;5051794;28;20233;-81
2023/03/25 12:15:10;;;;;;;11.57;3.10;;;19.50;46.70;;;;;;5050892;28;20619;-80
2023/03/25 12:17:51;;;;;;;9.90;2.78;;;19.50;46.70;;;;;;5033119;28;20215;-81
2023/03/25 12:20:26;;;;;;;12.02;3.28;;;19.50;46.70;;;;;;5052051;28;20219;-81
2023/03/25 12:23:02;;;;;;;13.15;2.88;;;19.50;46.70;;;;;;5051995;28;20242;-81
2023/03/25 12:25:41;;;;;;;11.88;2.92;;;19.50;46.70;;;;;;5034067;28;20253;-81
2023/03/25 12:28:27;;;;;;;13.10;3.25;;;19.50;46.70;;;;;;5051466;28;20216;-81
2023/03/25 12:31:05;;;;;;;12.07;2.83;;;19.50;46.70;;;;;;5055454;28;20658;-80
2023/03/25 12:33:46;;;;;;;12.40;3.42;;;19.40;46.60;;;;;;5055500;28;20375;-81
2023/03/25 12:36:26;;;;;;;15.63;3.42;;;19.40;46.60;;;;;;5055544;28;20196;-81
2023/03/25 12:39:03;;;;;;;12.00;3.13;;;19.50;46.70;;;;;;5055358;28;20219;-82
2023/03/25 12:41:40;;;;;;;14.18;3.17;;;19.50;46.70;;;;;;5051689;28;20469;-74
2023/03/25 12:44:12;;;;;;;12.93;3.08;;;19.50;46.70;;;;;;5037201;28;20211;-76
2023/03/25 12:47:02;;;;;;;7.85;2.25;;;19.50;46.80;;;;;;5054663;28;20184;-77
2023/03/25 12:49:55;;;;;;;5.85;1.70;;;19.50;46.90;;;;;;5054759;28;20215;-76
2023/03/25 12:52:31;;;;;;;10.82;2.10;;;19.60;47.00;;;;;;5049783;28;20199;-76
2023/03/25 12:55:09;;;;;;;6.55;1.98;;;19.60;47.00;;;;;;5053843;28;20221;-77
2023/03/25 12:57:57;;;;;;;6.90;2.03;;;19.50;47.00;;;;;;5054424;28;20717;-77